Other Surface Observations
Issued by NWS Great Falls, MT

Home | Current Version | Previous Version | Text Only | Print | Product List | Glossary On
Versions: 1 2 3 4 5 6 7 8 9 10 11 12 13 14 15 16 17 18 19 20 21 22 23 24 25 26 27 28 29 30 31 32 33 34 35 36 37 38 39 40 41 42 43 44 45 46 47 48 49 50
000
SXUS55 KTFX 241508
OSOTFX
AREA AWOS OBSERVATIONS
NATIONAL WEATHER SERVICE GREAT FALLS MT
0805 AM MST MON NOV 24 2014

METAR KPWD 241500Z AUTO 27003KT 10SM M09/M11 A2991 RMK PLENTYWOOD
METAR KPO1 241500Z AUTO 8SM M11/M13 A2995 RMK POPLAR
METAR K1S3 241500Z AUTO 28009KT 10SM 01/M03 A2992 RMK FORSYTH
METAR KS71 241500Z AUTO 24005KT 10SM M02/M05 A3000 RMK CHINOOK
METAR K6S0 241500Z AUTO 25020G28KT 8SM 01/M08 A3006 RMK BIG TIMBER
METAR K79S 241500Z AUTO 21004KT 10SM M01/M07 A3007 RMK FORT BENTON
METAR KEKS 241500Z AUTO 00000KT 10SM M02/M10 A3021 RMK ENNIS
METAR K38S 241500Z AUTO 29009G18KT 10SM 01/M08 A3020 RMK DEER LODGE
METAR K6S5 241500Z AUTO 15008KT 10SM 00/M04 A3025 RMK HAMILTON
METAR KS59 241500Z AUTO 00000KT 10SM M06/M07 A3025 RMK LIBBY
METAR K88M 241500Z AUTO 00000KT 10SM M04/M06 A3021 RMK EUREKA



USA.gov is the U.S. government's official web portal to all federal, state and local government web resources and services.